sensor_id;sensor_type;location;lat;lon;timestamp;P1;durP1;ratioP1;P2;durP2;ratioP2
63050;SDS011;49136;47.416;19.402;2022-10-13T00:02:16;28.75;;;11.10;;
63050;SDS011;49136;47.416;19.402;2022-10-13T00:04:42;24.63;;;10.38;;
63050;SDS011;49136;47.416;19.402;2022-10-13T00:07:07;25.38;;;10.48;;
63050;SDS011;49136;47.416;19.402;2022-10-13T00:09:32;27.90;;;11.07;;
63050;SDS011;49136;47.416;19.402;2022-10-13T00:11:58;24.98;;;10.13;;
63050;SDS011;49136;47.416;19.402;2022-10-13T00:14:23;28.63;;;10.95;;
63050;SDS011;49136;47.416;19.402;2022-10-13T00:16:49;26.60;;;9.95;;
63050;SDS011;49136;47.416;19.402;2022-10-13T00:19:14;25.77;;;10.70;;
63050;SDS011;49136;47.416;19.402;2022-10-13T00:21:39;27.20;;;9.93;;
63050;SDS011;49136;47.416;19.402;2022-10-13T00:24:05;19.08;;;8.75;;
63050;SDS011;49136;47.416;19.402;2022-10-13T00:26:35;18.33;;;8.68;;
63050;SDS011;49136;47.416;19.402;2022-10-13T00:29:00;23.23;;;9.85;;
63050;SDS011;49136;47.416;19.402;2022-10-13T00:31:27;29.00;;;11.43;;
63050;SDS011;49136;47.416;19.402;2022-10-13T00:33:55;33.17;;;10.52;;
63050;SDS011;49136;47.416;19.402;2022-10-13T00:36:22;27.00;;;10.40;;
63050;SDS011;49136;47.416;19.402;2022-10-13T00:38:48;32.95;;;10.43;;
63050;SDS011;49136;47.416;19.402;2022-10-13T00:41:13;26.35;;;9.95;;
63050;SDS011;49136;47.416;19.402;2022-10-13T00:43:57;28.60;;;11.45;;
63050;SDS011;49136;47.416;19.402;2022-10-13T00:46:24;29.60;;;13.48;;
63050;SDS011;49136;47.416;19.402;2022-10-13T00:48:52;29.05;;;13.70;;
63050;SDS011;49136;47.416;19.402;2022-10-13T00:51:20;33.10;;;12.57;;
63050;SDS011;49136;47.416;19.402;2022-10-13T00:53:48;35.28;;;14.30;;
63050;SDS011;49136;47.416;19.402;2022-10-13T00:56:15;32.28;;;12.82;;
63050;SDS011;49136;47.416;19.402;2022-10-13T00:58:42;39.90;;;15.10;;
63050;SDS011;49136;47.416;19.402;2022-10-13T01:01:09;36.00;;;12.38;;
63050;SDS011;49136;47.416;19.402;2022-10-13T01:03:35;35.25;;;13.57;;
63050;SDS011;49136;47.416;19.402;2022-10-13T01:06:01;35.03;;;14.02;;
63050;SDS011;49136;47.416;19.402;2022-10-13T01:08:29;38.45;;;13.88;;
63050;SDS011;49136;47.416;19.402;2022-10-13T01:14:27;34.30;;;13.27;;
63050;SDS011;49136;47.416;19.402;2022-10-13T01:17:04;37.28;;;13.00;;
63050;SDS011;49136;47.416;19.402;2022-10-13T01:19:49;41.00;;;14.55;;
63050;SDS011;49136;47.416;19.402;2022-10-13T01:25:11;34.85;;;14.07;;
63050;SDS011;49136;47.416;19.402;2022-10-13T01:27:48;36.03;;;14.57;;
63050;SDS011;49136;47.416;19.402;2022-10-13T01:30:24;40.97;;;14.93;;
63050;SDS011;49136;47.416;19.402;2022-10-13T01:43:42;29.35;;;12.65;;
63050;SDS011;49136;47.416;19.402;2022-10-13T01:46:16;37.45;;;13.77;;
63050;SDS011;49136;47.416;19.402;2022-10-13T01:48:46;33.58;;;13.50;;
63050;SDS011;49136;47.416;19.402;2022-10-13T01:51:17;32.15;;;12.13;;
63050;SDS011;49136;47.416;19.402;2022-10-13T01:53:45;29.55;;;12.55;;
63050;SDS011;49136;47.416;19.402;2022-10-13T01:56:13;25.38;;;10.90;;
63050;SDS011;49136;47.416;19.402;2022-10-13T01:58:38;26.58;;;10.57;;
63050;SDS011;49136;47.416;19.402;2022-10-13T02:04:36;20.63;;;8.80;;
63050;SDS011;49136;47.416;19.402;2022-10-13T02:07:17;22.13;;;9.60;;
63050;SDS011;49136;47.416;19.402;2022-10-13T02:12:23;32.13;;;11.05;;
63050;SDS011;49136;47.416;19.402;2022-10-13T02:15:06;23.33;;;9.60;;
63050;SDS011;49136;47.416;19.402;2022-10-13T02:17:35;29.10;;;11.10;;
63050;SDS011;49136;47.416;19.402;2022-10-13T02:20:00;40.13;;;9.85;;
63050;SDS011;49136;47.416;19.402;2022-10-13T02:22:31;36.13;;;10.77;;
63050;SDS011;49136;47.416;19.402;2022-10-13T02:25:02;24.30;;;9.65;;
63050;SDS011;49136;47.416;19.402;2022-10-13T02:27:27;21.17;;;9.23;;
63050;SDS011;49136;47.416;19.402;2022-10-13T02:29:56;23.17;;;10.07;;
63050;SDS011;49136;47.416;19.402;2022-10-13T02:32:22;17.52;;;8.63;;
63050;SDS011;49136;47.416;19.402;2022-10-13T02:34:48;26.15;;;11.77;;
63050;SDS011;49136;47.416;19.402;2022-10-13T02:37:14;23.90;;;10.98;;
63050;SDS011;49136;47.416;19.402;2022-10-13T02:39:39;23.77;;;10.68;;
63050;SDS011;49136;47.416;19.402;2022-10-13T02:42:05;27.77;;;10.70;;
63050;SDS011;49136;47.416;19.402;2022-10-13T02:44:31;22.60;;;8.70;;
63050;SDS011;49136;47.416;19.402;2022-10-13T02:46:56;28.58;;;10.15;;
63050;SDS011;49136;47.416;19.402;2022-10-13T02:49:21;22.65;;;10.48;;
63050;SDS011;49136;47.416;19.402;2022-10-13T02:51:47;23.35;;;10.77;;
63050;SDS011;49136;47.416;19.402;2022-10-13T02:54:12;35.40;;;10.93;;
63050;SDS011;49136;47.416;19.402;2022-10-13T02:56:37;29.88;;;10.98;;
63050;SDS011;49136;47.416;19.402;2022-10-13T02:59:03;28.02;;;10.55;;
63050;SDS011;49136;47.416;19.402;2022-10-13T03:01:28;28.13;;;12.85;;
63050;SDS011;49136;47.416;19.402;2022-10-13T03:03:54;38.63;;;11.32;;
63050;SDS011;49136;47.416;19.402;2022-10-13T03:06:19;20.55;;;9.27;;
63050;SDS011;49136;47.416;19.402;2022-10-13T03:08:45;24.17;;;10.73;;
63050;SDS011;49136;47.416;19.402;2022-10-13T03:11:10;25.50;;;11.05;;
63050;SDS011;49136;47.416;19.402;2022-10-13T03:13:36;21.63;;;9.18;;
63050;SDS011;49136;47.416;19.402;2022-10-13T03:16:01;21.83;;;9.80;;
63050;SDS011;49136;47.416;19.402;2022-10-13T03:18:27;23.67;;;9.57;;
63050;SDS011;49136;47.416;19.402;2022-10-13T03:20:57;26.75;;;10.63;;
63050;SDS011;49136;47.416;19.402;2022-10-13T03:23:23;22.75;;;9.55;;
63050;SDS011;49136;47.416;19.402;2022-10-13T03:25:49;23.58;;;9.98;;
63050;SDS011;49136;47.416;19.402;2022-10-13T03:28:14;21.58;;;9.35;;
63050;SDS011;49136;47.416;19.402;2022-10-13T03:30:40;26.77;;;9.73;;
63050;SDS011;49136;47.416;19.402;2022-10-13T03:33:05;23.70;;;9.52;;
63050;SDS011;49136;47.416;19.402;2022-10-13T03:35:30;20.85;;;8.77;;
63050;SDS011;49136;47.416;19.402;2022-10-13T03:37:56;28.33;;;9.65;;
63050;SDS011;49136;47.416;19.402;2022-10-13T03:40:21;26.40;;;10.65;;
63050;SDS011;49136;47.416;19.402;2022-10-13T03:42:46;19.73;;;9.50;;
63050;SDS011;49136;47.416;19.402;2022-10-13T03:45:12;24.50;;;11.13;;
63050;SDS011;49136;47.416;19.402;2022-10-13T03:47:38;30.45;;;10.52;;
63050;SDS011;49136;47.416;19.402;2022-10-13T03:50:04;28.35;;;10.88;;
63050;SDS011;49136;47.416;19.402;2022-10-13T03:52:30;23.33;;;10.75;;
63050;SDS011;49136;47.416;19.402;2022-10-13T03:54:55;27.98;;;12.20;;
63050;SDS011;49136;47.416;19.402;2022-10-13T03:57:20;37.47;;;13.40;;
63050;SDS011;49136;47.416;19.402;2022-10-13T03:59:46;34.67;;;11.57;;
63050;SDS011;49136;47.416;19.402;2022-10-13T04:02:11;28.92;;;10.10;;
63050;SDS011;49136;47.416;19.402;2022-10-13T04:04:37;22.50;;;10.10;;
63050;SDS011;49136;47.416;19.402;2022-10-13T04:07:02;21.15;;;9.05;;
63050;SDS011;49136;47.416;19.402;2022-10-13T04:09:28;33.25;;;11.05;;
63050;SDS011;49136;47.416;19.402;2022-10-13T04:11:53;21.58;;;8.45;;
63050;SDS011;49136;47.416;19.402;2022-10-13T04:14:19;23.63;;;9.13;;
63050;SDS011;49136;47.416;19.402;2022-10-13T04:16:44;26.02;;;9.18;;
63050;SDS011;49136;47.416;19.402;2022-10-13T04:19:11;38.95;;;15.77;;
63050;SDS011;49136;47.416;19.402;2022-10-13T04:21:37;24.75;;;12.27;;
63050;SDS011;49136;47.416;19.402;2022-10-13T04:24:03;24.90;;;11.10;;
63050;SDS011;49136;47.416;19.402;2022-10-13T04:26:30;24.77;;;10.40;;
63050;SDS011;49136;47.416;19.402;2022-10-13T04:29:01;25.70;;;10.75;;
63050;SDS011;49136;47.416;19.402;2022-10-13T04:31:28;24.75;;;10.07;;
63050;SDS011;49136;47.416;19.402;2022-10-13T04:33:54;20.92;;;9.32;;
63050;SDS011;49136;47.416;19.402;2022-10-13T04:36:22;29.63;;;10.35;;
63050;SDS011;49136;47.416;19.402;2022-10-13T04:38:48;21.73;;;9.00;;
63050;SDS011;49136;47.416;19.402;2022-10-13T04:41:15;28.40;;;10.60;;
63050;SDS011;49136;47.416;19.402;2022-10-13T04:43:41;25.70;;;10.25;;
63050;SDS011;49136;47.416;19.402;2022-10-13T04:46:14;20.63;;;7.95;;
63050;SDS011;49136;47.416;19.402;2022-10-13T04:48:43;25.27;;;9.85;;
63050;SDS011;49136;47.416;19.402;2022-10-13T04:51:09;18.92;;;8.68;;
63050;SDS011;49136;47.416;19.402;2022-10-13T04:53:37;25.42;;;11.05;;
63050;SDS011;49136;47.416;19.402;2022-10-13T04:56:04;25.45;;;11.90;;
63050;SDS011;49136;47.416;19.402;2022-10-13T04:58:32;22.25;;;9.50;;
63050;SDS011;49136;47.416;19.402;2022-10-13T05:00:59;25.15;;;9.15;;
63050;SDS011;49136;47.416;19.402;2022-10-13T05:03:24;23.13;;;10.93;;
63050;SDS011;49136;47.416;19.402;2022-10-13T05:05:50;30.05;;;9.65;;
63050;SDS011;49136;47.416;19.402;2022-10-13T05:08:16;21.42;;;9.02;;
63050;SDS011;49136;47.416;19.402;2022-10-13T05:10:41;20.48;;;9.10;;
63050;SDS011;49136;47.416;19.402;2022-10-13T05:13:06;27.65;;;9.88;;
63050;SDS011;49136;47.416;19.402;2022-10-13T05:15:32;27.23;;;10.02;;
63050;SDS011;49136;47.416;19.402;2022-10-13T05:17:57;19.60;;;8.40;;
63050;SDS011;49136;47.416;19.402;2022-10-13T05:20:24;23.58;;;9.68;;
63050;SDS011;49136;47.416;19.402;2022-10-13T05:22:50;20.83;;;10.52;;
63050;SDS011;49136;47.416;19.402;2022-10-13T05:25:15;20.67;;;9.25;;
63050;SDS011;49136;47.416;19.402;2022-10-13T05:27:41;25.48;;;10.48;;
63050;SDS011;49136;47.416;19.402;2022-10-13T05:30:07;19.65;;;9.98;;
63050;SDS011;49136;47.416;19.402;2022-10-13T05:32:33;21.55;;;9.82;;
63050;SDS011;49136;47.416;19.402;2022-10-13T05:34:59;25.67;;;11.23;;
63050;SDS011;49136;47.416;19.402;2022-10-13T05:37:25;20.63;;;8.20;;
63050;SDS011;49136;47.416;19.402;2022-10-13T05:39:50;19.05;;;9.77;;
63050;SDS011;49136;47.416;19.402;2022-10-13T05:42:15;31.25;;;9.70;;
63050;SDS011;49136;47.416;19.402;2022-10-13T05:44:41;23.60;;;9.23;;
63050;SDS011;49136;47.416;19.402;2022-10-13T05:47:06;26.05;;;10.07;;
63050;SDS011;49136;47.416;19.402;2022-10-13T05:49:32;26.80;;;9.65;;
63050;SDS011;49136;47.416;19.402;2022-10-13T05:52:00;26.00;;;8.57;;
63050;SDS011;49136;47.416;19.402;2022-10-13T05:57:10;33.65;;;12.15;;
63050;SDS011;49136;47.416;19.402;2022-10-13T05:59:38;30.48;;;10.70;;
63050;SDS011;49136;47.416;19.402;2022-10-13T06:02:08;26.77;;;10.40;;
63050;SDS011;49136;47.416;19.402;2022-10-13T06:04:38;27.45;;;12.05;;
63050;SDS011;49136;47.416;19.402;2022-10-13T06:07:07;28.52;;;10.90;;
63050;SDS011;49136;47.416;19.402;2022-10-13T06:09:34;31.23;;;10.77;;
63050;SDS011;49136;47.416;19.402;2022-10-13T06:12:02;20.67;;;9.63;;
63050;SDS011;49136;47.416;19.402;2022-10-13T06:14:28;31.08;;;10.48;;
63050;SDS011;49136;47.416;19.402;2022-10-13T06:16:53;22.75;;;9.95;;
63050;SDS011;49136;47.416;19.402;2022-10-13T06:19:19;23.00;;;9.40;;
63050;SDS011;49136;47.416;19.402;2022-10-13T06:21:44;26.33;;;9.35;;
63050;SDS011;49136;47.416;19.402;2022-10-13T06:24:09;20.45;;;8.55;;
63050;SDS011;49136;47.416;19.402;2022-10-13T06:26:35;14.77;;;7.55;;
63050;SDS011;49136;47.416;19.402;2022-10-13T06:29:00;14.50;;;5.97;;
63050;SDS011;49136;47.416;19.402;2022-10-13T06:31:26;20.23;;;7.40;;
63050;SDS011;49136;47.416;19.402;2022-10-13T06:33:52;14.35;;;6.65;;
63050;SDS011;49136;47.416;19.402;2022-10-13T06:36:17;15.50;;;6.60;;
63050;SDS011;49136;47.416;19.402;2022-10-13T06:38:43;16.80;;;7.45;;
63050;SDS011;49136;47.416;19.402;2022-10-13T06:41:08;15.82;;;6.05;;
63050;SDS011;49136;47.416;19.402;2022-10-13T06:43:33;19.83;;;7.72;;
63050;SDS011;49136;47.416;19.402;2022-10-13T06:45:59;12.90;;;6.95;;
63050;SDS011;49136;47.416;19.402;2022-10-13T06:48:25;16.63;;;6.72;;
63050;SDS011;49136;47.416;19.402;2022-10-13T06:50:51;16.20;;;6.68;;
63050;SDS011;49136;47.416;19.402;2022-10-13T06:53:17;17.83;;;5.55;;
63050;SDS011;49136;47.416;19.402;2022-10-13T06:55:42;15.43;;;6.18;;
63050;SDS011;49136;47.416;19.402;2022-10-13T06:58:08;11.82;;;5.75;;
63050;SDS011;49136;47.416;19.402;2022-10-13T07:00:34;18.83;;;5.50;;
63050;SDS011;49136;47.416;19.402;2022-10-13T07:03:00;14.57;;;5.50;;
63050;SDS011;49136;47.416;19.402;2022-10-13T07:05:26;14.07;;;5.95;;
63050;SDS011;49136;47.416;19.402;2022-10-13T07:07:51;14.68;;;6.22;;
63050;SDS011;49136;47.416;19.402;2022-10-13T07:10:17;11.35;;;5.53;;
63050;SDS011;49136;47.416;19.402;2022-10-13T07:12:43;10.02;;;5.35;;
63050;SDS011;49136;47.416;19.402;2022-10-13T07:15:09;11.00;;;5.40;;
63050;SDS011;49136;47.416;19.402;2022-10-13T07:17:34;9.70;;;4.50;;
63050;SDS011;49136;47.416;19.402;2022-10-13T07:20:00;11.32;;;4.25;;
63050;SDS011;49136;47.416;19.402;2022-10-13T07:22:29;12.48;;;5.38;;
63050;SDS011;49136;47.416;19.402;2022-10-13T07:24:55;7.47;;;3.78;;
63050;SDS011;49136;47.416;19.402;2022-10-13T07:27:20;14.80;;;4.68;;
63050;SDS011;49136;47.416;19.402;2022-10-13T07:29:46;11.13;;;4.82;;
63050;SDS011;49136;47.416;19.402;2022-10-13T07:32:11;9.85;;;5.32;;
63050;SDS011;49136;47.416;19.402;2022-10-13T07:34:37;11.48;;;5.22;;
63050;SDS011;49136;47.416;19.402;2022-10-13T07:37:02;16.13;;;5.43;;
63050;SDS011;49136;47.416;19.402;2022-10-13T07:39:28;7.70;;;4.03;;
63050;SDS011;49136;47.416;19.402;2022-10-13T07:41:53;6.60;;;3.50;;
63050;SDS011;49136;47.416;19.402;2022-10-13T07:44:18;11.10;;;4.68;;
63050;SDS011;49136;47.416;19.402;2022-10-13T07:46:44;10.75;;;4.57;;
63050;SDS011;49136;47.416;19.402;2022-10-13T07:49:09;10.73;;;4.13;;
63050;SDS011;49136;47.416;19.402;2022-10-13T07:51:35;6.93;;;3.40;;
63050;SDS011;49136;47.416;19.402;2022-10-13T07:54:00;9.73;;;4.75;;
63050;SDS011;49136;47.416;19.402;2022-10-13T07:56:25;8.25;;;4.10;;
63050;SDS011;49136;47.416;19.402;2022-10-13T07:58:51;10.20;;;3.97;;
63050;SDS011;49136;47.416;19.402;2022-10-13T08:01:16;11.75;;;4.70;;
63050;SDS011;49136;47.416;19.402;2022-10-13T08:03:42;9.85;;;3.67;;
63050;SDS011;49136;47.416;19.402;2022-10-13T08:06:08;4.97;;;3.35;;
63050;SDS011;49136;47.416;19.402;2022-10-13T08:08:34;11.27;;;3.90;;
63050;SDS011;49136;47.416;19.402;2022-10-13T08:11:00;9.95;;;3.83;;
63050;SDS011;49136;47.416;19.402;2022-10-13T08:13:29;6.95;;;3.60;;
63050;SDS011;49136;47.416;19.402;2022-10-13T08:15:54;7.82;;;4.00;;
63050;SDS011;49136;47.416;19.402;2022-10-13T08:18:20;10.57;;;4.55;;
63050;SDS011;49136;47.416;19.402;2022-10-13T08:20:45;6.28;;;3.58;;
63050;SDS011;49136;47.416;19.402;2022-10-13T08:23:11;7.78;;;3.97;;
63050;SDS011;49136;47.416;19.402;2022-10-13T08:25:40;9.27;;;4.25;;
63050;SDS011;49136;47.416;19.402;2022-10-13T08:28:17;7.43;;;4.60;;
63050;SDS011;49136;47.416;19.402;2022-10-13T08:30:44;7.57;;;4.07;;
63050;SDS011;49136;47.416;19.402;2022-10-13T08:33:09;10.57;;;3.83;;
63050;SDS011;49136;47.416;19.402;2022-10-13T08:35:35;8.77;;;4.55;;
63050;SDS011;49136;47.416;19.402;2022-10-13T08:38:00;6.78;;;3.75;;
63050;SDS011;49136;47.416;19.402;2022-10-13T08:40:26;9.25;;;3.97;;
63050;SDS011;49136;47.416;19.402;2022-10-13T08:42:51;5.47;;;3.35;;
63050;SDS011;49136;47.416;19.402;2022-10-13T08:45:22;9.73;;;4.05;;
63050;SDS011;49136;47.416;19.402;2022-10-13T08:47:53;6.95;;;3.45;;
63050;SDS011;49136;47.416;19.402;2022-10-13T08:50:29;10.20;;;4.20;;
63050;SDS011;49136;47.416;19.402;2022-10-13T08:53:46;9.93;;;4.13;;
63050;SDS011;49136;47.416;19.402;2022-10-13T08:56:03;8.93;;;4.28;;
63050;SDS011;49136;47.416;19.402;2022-10-13T08:58:34;10.02;;;4.18;;
63050;SDS011;49136;47.416;19.402;2022-10-13T09:03:52;9.90;;;4.10;;
63050;SDS011;49136;47.416;19.402;2022-10-13T09:06:35;7.68;;;3.78;;
63050;SDS011;49136;47.416;19.402;2022-10-13T09:09:05;13.10;;;4.28;;
63050;SDS011;49136;47.416;19.402;2022-10-13T09:11:36;8.02;;;4.57;;
63050;SDS011;49136;47.416;19.402;2022-10-13T09:22:07;9.20;;;4.40;;
63050;SDS011;49136;47.416;19.402;2022-10-13T09:24:47;12.60;;;4.05;;
63050;SDS011;49136;47.416;19.402;2022-10-13T09:27:14;10.15;;;4.55;;
63050;SDS011;49136;47.416;19.402;2022-10-13T09:29:41;10.88;;;4.85;;
63050;SDS011;49136;47.416;19.402;2022-10-13T09:32:16;7.93;;;4.25;;
63050;SDS011;49136;47.416;19.402;2022-10-13T09:34:50;8.63;;;4.60;;
63050;SDS011;49136;47.416;19.402;2022-10-13T09:37:18;17.15;;;4.53;;
63050;SDS011;49136;47.416;19.402;2022-10-13T09:42:51;7.25;;;3.72;;
63050;SDS011;49136;47.416;19.402;2022-10-13T09:45:18;13.70;;;4.15;;
63050;SDS011;49136;47.416;19.402;2022-10-13T09:48:04;23.92;;;5.20;;
63050;SDS011;49136;47.416;19.402;2022-10-13T09:50:32;12.02;;;5.07;;
63050;SDS011;49136;47.416;19.402;2022-10-13T09:53:10;7.75;;;4.28;;
63050;SDS011;49136;47.416;19.402;2022-10-13T09:55:40;11.63;;;6.10;;
63050;SDS011;49136;47.416;19.402;2022-10-13T09:58:06;13.25;;;6.07;;
63050;SDS011;49136;47.416;19.402;2022-10-13T10:00:38;13.68;;;5.78;;
63050;SDS011;49136;47.416;19.402;2022-10-13T10:06:01;12.00;;;5.70;;
63050;SDS011;49136;47.416;19.402;2022-10-13T10:11:10;10.82;;;5.70;;
63050;SDS011;49136;47.416;19.402;2022-10-13T10:13:37;14.52;;;6.97;;
63050;SDS011;49136;47.416;19.402;2022-10-13T10:16:06;13.40;;;6.32;;
63050;SDS011;49136;47.416;19.402;2022-10-13T10:22:07;13.82;;;6.78;;
63050;SDS011;49136;47.416;19.402;2022-10-13T10:31:20;9.73;;;4.95;;
63050;SDS011;49136;47.416;19.402;2022-10-13T10:34:29;10.18;;;4.70;;
63050;SDS011;49136;47.416;19.402;2022-10-13T10:39:58;10.88;;;4.80;;
63050;SDS011;49136;47.416;19.402;2022-10-13T10:42:39;9.45;;;4.32;;
63050;SDS011;49136;47.416;19.402;2022-10-13T10:45:17;11.63;;;4.95;;
63050;SDS011;49136;47.416;19.402;2022-10-13T10:47:53;15.13;;;6.15;;
63050;SDS011;49136;47.416;19.402;2022-10-13T10:50:23;17.88;;;7.88;;
63050;SDS011;49136;47.416;19.402;2022-10-13T10:52:57;11.50;;;5.55;;
63050;SDS011;49136;47.416;19.402;2022-10-13T11:07:08;14.80;;;7.68;;
63050;SDS011;49136;47.416;19.402;2022-10-13T11:14:45;10.60;;;5.18;;
63050;SDS011;49136;47.416;19.402;2022-10-13T11:17:27;14.55;;;7.13;;
63050;SDS011;49136;47.416;19.402;2022-10-13T11:19:56;12.85;;;6.35;;
63050;SDS011;49136;47.416;19.402;2022-10-13T11:22:28;12.25;;;5.32;;
63050;SDS011;49136;47.416;19.402;2022-10-13T11:25:02;15.60;;;7.38;;
63050;SDS011;49136;47.416;19.402;2022-10-13T11:27:47;20.92;;;8.40;;
63050;SDS011;49136;47.416;19.402;2022-10-13T11:35:55;18.27;;;8.80;;
63050;SDS011;49136;47.416;19.402;2022-10-13T11:38:22;22.17;;;8.48;;
63050;SDS011;49136;47.416;19.402;2022-10-13T11:41:08;15.68;;;8.60;;
63050;SDS011;49136;47.416;19.402;2022-10-13T11:54:22;16.83;;;7.95;;
63050;SDS011;49136;47.416;19.402;2022-10-13T11:56:57;21.00;;;9.35;;
63050;SDS011;49136;47.416;19.402;2022-10-13T11:59:24;19.83;;;9.07;;
63050;SDS011;49136;47.416;19.402;2022-10-13T12:01:57;19.17;;;9.55;;
63050;SDS011;49136;47.416;19.402;2022-10-13T12:04:38;23.80;;;9.30;;
63050;SDS011;49136;47.416;19.402;2022-10-13T12:07:06;17.85;;;9.55;;
63050;SDS011;49136;47.416;19.402;2022-10-13T12:09:35;25.33;;;10.95;;
63050;SDS011;49136;47.416;19.402;2022-10-13T12:12:16;26.73;;;11.85;;
63050;SDS011;49136;47.416;19.402;2022-10-13T12:14:45;22.67;;;11.35;;
63050;SDS011;49136;47.416;19.402;2022-10-13T12:19:46;25.15;;;13.10;;
63050;SDS011;49136;47.416;19.402;2022-10-13T12:22:13;26.50;;;12.02;;
63050;SDS011;49136;47.416;19.402;2022-10-13T12:24:39;27.63;;;12.65;;
63050;SDS011;49136;47.416;19.402;2022-10-13T12:27:16;27.55;;;12.75;;
63050;SDS011;49136;47.416;19.402;2022-10-13T12:29:44;26.55;;;12.48;;
63050;SDS011;49136;47.416;19.402;2022-10-13T12:32:17;26.55;;;13.43;;
63050;SDS011;49136;47.416;19.402;2022-10-13T12:35:14;31.08;;;14.35;;
63050;SDS011;49136;47.416;19.402;2022-10-13T12:37:43;25.75;;;13.27;;
63050;SDS011;49136;47.416;19.402;2022-10-13T12:40:11;27.65;;;12.35;;
63050;SDS011;49136;47.416;19.402;2022-10-13T12:42:38;25.67;;;12.98;;
63050;SDS011;49136;47.416;19.402;2022-10-13T12:45:04;27.75;;;12.75;;
63050;SDS011;49136;47.416;19.402;2022-10-13T12:52:47;27.13;;;11.25;;
63050;SDS011;49136;47.416;19.402;2022-10-13T12:55:16;29.00;;;12.50;;
63050;SDS011;49136;47.416;19.402;2022-10-13T12:57:44;27.05;;;10.98;;
63050;SDS011;49136;47.416;19.402;2022-10-13T13:02:53;28.33;;;11.10;;
63050;SDS011;49136;47.416;19.402;2022-10-13T13:05:28;22.60;;;10.73;;
63050;SDS011;49136;47.416;19.402;2022-10-13T13:08:03;21.65;;;11.00;;
63050;SDS011;49136;47.416;19.402;2022-10-13T13:10:58;22.58;;;11.30;;
63050;SDS011;49136;47.416;19.402;2022-10-13T13:13:24;24.85;;;11.40;;
63050;SDS011;49136;47.416;19.402;2022-10-13T13:15:50;28.75;;;12.02;;
63050;SDS011;49136;47.416;19.402;2022-10-13T13:21:06;22.65;;;10.52;;
63050;SDS011;49136;47.416;19.402;2022-10-13T13:23:33;18.42;;;8.73;;
63050;SDS011;49136;47.416;19.402;2022-10-13T13:26:00;17.63;;;8.90;;
63050;SDS011;49136;47.416;19.402;2022-10-13T13:28:36;21.17;;;9.60;;
63050;SDS011;49136;47.416;19.402;2022-10-13T13:31:02;25.17;;;11.05;;
63050;SDS011;49136;47.416;19.402;2022-10-13T13:33:27;17.25;;;9.45;;
63050;SDS011;49136;47.416;19.402;2022-10-13T13:35:53;17.98;;;8.85;;
63050;SDS011;49136;47.416;19.402;2022-10-13T13:38:18;18.50;;;8.63;;
63050;SDS011;49136;47.416;19.402;2022-10-13T13:40:44;17.52;;;7.78;;
63050;SDS011;49136;47.416;19.402;2022-10-13T13:43:09;14.00;;;7.40;;
63050;SDS011;49136;47.416;19.402;2022-10-13T13:45:35;20.00;;;7.45;;
63050;SDS011;49136;47.416;19.402;2022-10-13T13:48:00;18.48;;;6.75;;
63050;SDS011;49136;47.416;19.402;2022-10-13T13:50:27;13.88;;;7.82;;
63050;SDS011;49136;47.416;19.402;2022-10-13T13:55:23;19.42;;;7.18;;
63050;SDS011;49136;47.416;19.402;2022-10-13T13:57:49;24.08;;;8.43;;
63050;SDS011;49136;47.416;19.402;2022-10-13T14:00:15;17.88;;;7.05;;
63050;SDS011;49136;47.416;19.402;2022-10-13T14:02:41;18.10;;;7.90;;
63050;SDS011;49136;47.416;19.402;2022-10-13T14:05:07;13.10;;;6.72;;
63050;SDS011;49136;47.416;19.402;2022-10-13T14:07:33;17.85;;;8.80;;
63050;SDS011;49136;47.416;19.402;2022-10-13T14:09:59;16.30;;;7.57;;
63050;SDS011;49136;47.416;19.402;2022-10-13T14:12:24;13.90;;;6.72;;
63050;SDS011;49136;47.416;19.402;2022-10-13T14:14:49;13.85;;;7.38;;
63050;SDS011;49136;47.416;19.402;2022-10-13T14:17:15;11.40;;;6.53;;
63050;SDS011;49136;47.416;19.402;2022-10-13T14:19:40;14.65;;;7.85;;
63050;SDS011;49136;47.416;19.402;2022-10-13T14:22:06;20.05;;;10.07;;
63050;SDS011;49136;47.416;19.402;2022-10-13T14:24:32;16.38;;;9.27;;
63050;SDS011;49136;47.416;19.402;2022-10-13T14:26:57;24.60;;;9.48;;
63050;SDS011;49136;47.416;19.402;2022-10-13T14:29:23;20.70;;;9.23;;
63050;SDS011;49136;47.416;19.402;2022-10-13T14:31:48;23.35;;;8.57;;
63050;SDS011;49136;47.416;19.402;2022-10-13T14:34:14;16.50;;;9.02;;
63050;SDS011;49136;47.416;19.402;2022-10-13T14:36:39;15.05;;;7.82;;
63050;SDS011;49136;47.416;19.402;2022-10-13T14:39:04;17.50;;;7.43;;
63050;SDS011;49136;47.416;19.402;2022-10-13T14:41:30;18.77;;;9.00;;
63050;SDS011;49136;47.416;19.402;2022-10-13T14:43:55;26.55;;;11.27;;
63050;SDS011;49136;47.416;19.402;2022-10-13T14:46:22;33.25;;;13.57;;
63050;SDS011;49136;47.416;19.402;2022-10-13T14:48:48;23.67;;;10.45;;
63050;SDS011;49136;47.416;19.402;2022-10-13T14:51:13;29.27;;;11.10;;
63050;SDS011;49136;47.416;19.402;2022-10-13T14:53:40;22.48;;;10.93;;
63050;SDS011;49136;47.416;19.402;2022-10-13T14:56:17;19.00;;;9.35;;
63050;SDS011;49136;47.416;19.402;2022-10-13T14:58:47;16.73;;;8.90;;
63050;SDS011;49136;47.416;19.402;2022-10-13T15:01:14;19.70;;;8.77;;
63050;SDS011;49136;47.416;19.402;2022-10-13T15:03:40;20.23;;;9.43;;
63050;SDS011;49136;47.416;19.402;2022-10-13T15:06:06;30.80;;;9.00;;
63050;SDS011;49136;47.416;19.402;2022-10-13T15:08:37;18.00;;;10.23;;
63050;SDS011;49136;47.416;19.402;2022-10-13T15:11:02;25.52;;;10.75;;
63050;SDS011;49136;47.416;19.402;2022-10-13T15:13:28;24.15;;;11.57;;
63050;SDS011;49136;47.416;19.402;2022-10-13T15:15:54;22.73;;;10.13;;
63050;SDS011;49136;47.416;19.402;2022-10-13T15:18:21;29.98;;;12.10;;
63050;SDS011;49136;47.416;19.402;2022-10-13T15:20:46;36.00;;;11.77;;
63050;SDS011;49136;47.416;19.402;2022-10-13T15:23:13;36.55;;;13.90;;
63050;SDS011;49136;47.416;19.402;2022-10-13T15:25:39;43.42;;;14.93;;
63050;SDS011;49136;47.416;19.402;2022-10-13T15:28:14;62.33;;;18.98;;
63050;SDS011;49136;47.416;19.402;2022-10-13T15:30:39;63.25;;;18.58;;
63050;SDS011;49136;47.416;19.402;2022-10-13T15:33:05;50.03;;;15.57;;
63050;SDS011;49136;47.416;19.402;2022-10-13T15:35:30;32.10;;;12.70;;
63050;SDS011;49136;47.416;19.402;2022-10-13T15:37:56;22.60;;;10.20;;
63050;SDS011;49136;47.416;19.402;2022-10-13T15:40:22;23.45;;;9.88;;
63050;SDS011;49136;47.416;19.402;2022-10-13T15:42:47;22.58;;;9.55;;
63050;SDS011;49136;47.416;19.402;2022-10-13T15:45:13;23.98;;;9.05;;
63050;SDS011;49136;47.416;19.402;2022-10-13T15:47:39;19.67;;;10.07;;
63050;SDS011;49136;47.416;19.402;2022-10-13T15:50:04;28.40;;;8.73;;
63050;SDS011;49136;47.416;19.402;2022-10-13T15:52:30;15.57;;;8.40;;
63050;SDS011;49136;47.416;19.402;2022-10-13T15:54:56;22.80;;;8.93;;
63050;SDS011;49136;47.416;19.402;2022-10-13T15:57:21;18.75;;;8.98;;
63050;SDS011;49136;47.416;19.402;2022-10-13T15:59:46;17.67;;;8.43;;
63050;SDS011;49136;47.416;19.402;2022-10-13T16:02:12;20.98;;;8.82;;
63050;SDS011;49136;47.416;19.402;2022-10-13T16:04:37;21.35;;;10.02;;
63050;SDS011;49136;47.416;19.402;2022-10-13T16:07:03;20.13;;;9.00;;
63050;SDS011;49136;47.416;19.402;2022-10-13T16:09:28;28.27;;;9.75;;
63050;SDS011;49136;47.416;19.402;2022-10-13T16:11:54;20.08;;;9.25;;